createdAt,value
2023-04-16T00:00:47.078Z,551.00
2023-04-16T00:01:47.039Z,551.00
2023-04-16T00:02:47.187Z,549.00
2023-04-16T00:03:47.410Z,547.00
2023-04-16T00:04:47.143Z,548.00
2023-04-16T00:05:47.015Z,548.00
2023-04-16T00:06:47.011Z,548.00
2023-04-16T00:07:47.028Z,546.00
2023-04-16T00:08:47.053Z,546.00
2023-04-16T00:09:47.848Z,545.00
2023-04-16T00:10:46.980Z,545.00
2023-04-16T00:11:47.009Z,545.00
2023-04-16T00:12:46.958Z,543.00
2023-04-16T00:13:47.002Z,543.00
2023-04-16T00:14:46.970Z,546.00
2023-04-16T00:15:46.968Z,544.00
2023-04-16T00:16:47.018Z,544.00
2023-04-16T00:17:47.036Z,543.00
2023-04-16T00:18:46.997Z,543.00
2023-04-16T00:19:46.953Z,543.00
2023-04-16T00:20:46.986Z,544.00
2023-04-16T00:21:46.949Z,546.00
2023-04-16T00:22:46.951Z,545.00
2023-04-16T00:23:46.972Z,545.00
2023-04-16T00:24:46.954Z,544.00
2023-04-16T00:25:46.945Z,543.00
2023-04-16T00:26:46.943Z,544.00
2023-04-16T00:27:46.937Z,542.00
2023-04-16T00:28:46.978Z,543.00
2023-04-16T00:29:46.954Z,543.00
2023-04-16T00:30:47.015Z,543.00
2023-04-16T00:31:46.940Z,544.00
2023-04-16T00:32:46.986Z,543.00
2023-04-16T00:33:46.918Z,542.00
2023-04-16T00:34:46.934Z,541.00
2023-04-16T00:35:46.892Z,541.00
2023-04-16T00:36:46.921Z,541.00
2023-04-16T00:37:47.882Z,541.00
2023-04-16T00:38:46.925Z,541.00
2023-04-16T00:39:46.933Z,539.00
2023-04-16T00:40:46.911Z,539.00
2023-04-16T00:41:46.917Z,540.00
2023-04-16T00:42:46.907Z,541.00
2023-04-16T00:43:46.890Z,541.00
2023-04-16T00:44:46.929Z,540.00
2023-04-16T00:45:46.908Z,543.00
2023-04-16T00:46:46.951Z,542.00
2023-04-16T00:47:46.920Z,544.00
2023-04-16T00:48:46.908Z,541.00
2023-04-16T00:49:46.901Z,539.00
2023-04-16T00:50:46.877Z,538.00
2023-04-16T00:51:46.871Z,538.00
2023-04-16T00:52:46.893Z,538.00
2023-04-16T00:53:46.855Z,539.00
2023-04-16T00:54:46.884Z,539.00
2023-04-16T00:55:46.916Z,538.00
2023-04-16T00:56:46.875Z,538.00
2023-04-16T00:57:46.907Z,539.00
2023-04-16T00:58:46.863Z,539.00
2023-04-16T00:59:46.864Z,540.00
2023-04-16T01:00:46.837Z,540.00
2023-04-16T01:01:46.882Z,538.00
2023-04-16T01:02:46.932Z,538.00
2023-04-16T01:03:46.917Z,540.00
2023-04-16T01:04:46.823Z,538.00
2023-04-16T01:05:46.863Z,539.00
2023-04-16T01:06:46.827Z,542.00
2023-04-16T01:07:46.843Z,541.00
2023-04-16T01:08:46.840Z,540.00
2023-04-16T01:09:46.839Z,539.00
2023-04-16T01:10:46.838Z,537.00
2023-04-16T01:11:46.861Z,538.00
2023-04-16T01:12:46.784Z,538.00
2023-04-16T01:13:46.819Z,537.00
2023-04-16T01:14:46.828Z,536.00
2023-04-16T01:15:46.873Z,535.00
2023-04-16T01:16:46.807Z,534.00
2023-04-16T01:17:46.824Z,534.00
2023-04-16T01:18:46.770Z,535.00
2023-04-16T01:19:46.784Z,535.00
2023-04-16T01:20:46.786Z,535.00
2023-04-16T01:21:46.789Z,536.00
2023-04-16T01:22:46.781Z,535.00
2023-04-16T01:23:46.801Z,536.00
2023-04-16T01:24:46.784Z,535.00
2023-04-16T01:25:46.776Z,537.00
2023-04-16T01:26:46.785Z,539.00
2023-04-16T01:27:46.755Z,538.00
2023-04-16T01:28:46.791Z,538.00
2023-04-16T01:29:46.776Z,539.00
2023-04-16T01:30:46.835Z,539.00
2023-04-16T01:31:46.968Z,540.00
2023-04-16T01:32:46.803Z,540.00
2023-04-16T01:33:46.790Z,543.00
2023-04-16T01:34:46.805Z,543.00
2023-04-16T01:35:46.784Z,545.00
2023-04-16T01:36:46.769Z,542.00
2023-04-16T01:37:46.796Z,541.00
2023-04-16T01:38:48.407Z,539.00
2023-04-16T01:39:46.803Z,538.00
2023-04-16T01:40:46.798Z,539.00
2023-04-16T01:41:46.812Z,542.00
2023-04-16T01:42:46.812Z,543.00
2023-04-16T01:43:46.796Z,545.00
2023-04-16T01:44:46.782Z,545.00
2023-04-16T01:45:46.802Z,545.00
2023-04-16T01:46:46.820Z,545.00
2023-04-16T01:47:46.810Z,544.00
2023-04-16T01:48:46.782Z,541.00
2023-04-16T01:49:46.814Z,539.00
2023-04-16T01:50:46.794Z,537.00
2023-04-16T01:51:46.793Z,536.00
2023-04-16T01:52:46.816Z,536.00
2023-04-16T01:53:46.842Z,534.00
2023-04-16T01:54:46.870Z,533.00
2023-04-16T01:55:46.831Z,534.00
2023-04-16T01:56:46.821Z,537.00
2023-04-16T01:57:46.824Z,537.00
2023-04-16T01:58:46.807Z,536.00
2023-04-16T01:59:46.802Z,536.00
2023-04-16T02:00:46.879Z,535.00
2023-04-16T02:01:46.886Z,536.00
2023-04-16T02:02:46.988Z,535.00
2023-04-16T02:03:47.016Z,534.00
2023-04-16T02:04:46.831Z,534.00
2023-04-16T02:05:46.883Z,535.00
2023-04-16T02:06:46.869Z,535.00
2023-04-16T02:07:46.853Z,535.00
2023-04-16T02:08:46.881Z,535.00
2023-04-16T02:09:46.862Z,535.00
2023-04-16T02:10:46.859Z,537.00
2023-04-16T02:11:46.873Z,538.00
2023-04-16T02:12:46.874Z,536.00
2023-04-16T02:13:46.885Z,538.00
2023-04-16T02:14:46.885Z,538.00
2023-04-16T02:15:46.868Z,539.00
2023-04-16T02:16:46.974Z,541.00
2023-04-16T02:17:46.938Z,541.00
2023-04-16T02:18:46.939Z,543.00
2023-04-16T02:19:46.924Z,544.00
2023-04-16T02:20:46.913Z,545.00
2023-04-16T02:21:46.913Z,544.00
2023-04-16T02:22:46.901Z,544.00
2023-04-16T02:23:46.902Z,546.00
2023-04-16T02:24:46.925Z,546.00
2023-04-16T02:25:46.917Z,545.00
2023-04-16T02:26:46.958Z,544.00
2023-04-16T02:27:46.950Z,544.00
2023-04-16T02:28:46.938Z,541.00
2023-04-16T02:29:46.938Z,538.00
2023-04-16T02:30:46.935Z,538.00
2023-04-16T02:31:46.966Z,538.00
2023-04-16T02:32:46.963Z,538.00
2023-04-16T02:33:46.929Z,539.00
2023-04-16T02:34:46.923Z,540.00
2023-04-16T02:35:46.948Z,540.00
2023-04-16T02:36:46.935Z,537.00
2023-04-16T02:37:46.958Z,539.00
2023-04-16T02:38:46.952Z,541.00
2023-04-16T02:39:47.923Z,541.00
2023-04-16T02:40:46.960Z,541.00
2023-04-16T02:41:46.956Z,541.00
2023-04-16T02:42:46.971Z,545.00
2023-04-16T02:43:46.945Z,546.00
2023-04-16T02:44:46.939Z,544.00
2023-04-16T02:45:47.011Z,542.00
2023-04-16T02:46:46.991Z,541.00
2023-04-16T02:47:46.978Z,540.00
2023-04-16T02:48:46.960Z,538.00
2023-04-16T02:49:46.951Z,537.00
2023-04-16T02:50:46.935Z,534.00
2023-04-16T02:51:46.970Z,534.00
2023-04-16T02:52:46.974Z,532.00
2023-04-16T02:53:46.976Z,531.00
2023-04-16T02:54:46.968Z,532.00
2023-04-16T02:55:46.972Z,534.00
2023-04-16T02:56:47.015Z,537.00
2023-04-16T02:57:46.997Z,538.00
2023-04-16T02:58:47.010Z,538.00
2023-04-16T02:59:46.972Z,537.00
2023-04-16T03:00:47.013Z,536.00
2023-04-16T03:01:47.113Z,534.00
2023-04-16T03:02:47.106Z,533.00
2023-04-16T03:03:47.478Z,533.00
2023-04-16T03:04:47.029Z,533.00
2023-04-16T03:05:46.994Z,533.00
2023-04-16T03:06:46.995Z,533.00
2023-04-16T03:07:47.000Z,534.00
2023-04-16T03:08:47.004Z,533.00
2023-04-16T03:09:47.025Z,534.00
2023-04-16T03:10:47.026Z,536.00
2023-04-16T03:11:47.024Z,536.00
2023-04-16T03:12:47.033Z,535.00
2023-04-16T03:13:47.049Z,536.00
2023-04-16T03:14:47.062Z,534.00
2023-04-16T03:15:47.064Z,533.00
2023-04-16T03:16:47.084Z,532.00
2023-04-16T03:17:47.085Z,531.00
2023-04-16T03:18:47.077Z,534.00
2023-04-16T03:19:47.073Z,533.00
2023-04-16T03:20:47.089Z,535.00
2023-04-16T03:21:47.080Z,535.00
2023-04-16T03:22:47.080Z,533.00
2023-04-16T03:23:47.086Z,534.00
2023-04-16T03:24:47.089Z,534.00
2023-04-16T03:25:47.112Z,532.00
2023-04-16T03:26:47.091Z,533.00
2023-04-16T03:27:47.110Z,536.00
2023-04-16T03:28:47.109Z,538.00
2023-04-16T03:29:47.125Z,538.00
2023-04-16T03:30:47.145Z,536.00
2023-04-16T03:31:47.135Z,537.00
2023-04-16T03:32:47.278Z,540.00
2023-04-16T03:33:47.159Z,538.00
2023-04-16T03:34:47.171Z,538.00
2023-04-16T03:35:47.176Z,536.00
2023-04-16T03:36:47.190Z,535.00
2023-04-16T03:37:47.196Z,536.00
2023-04-16T03:38:47.181Z,536.00
2023-04-16T03:39:47.205Z,537.00
2023-04-16T03:40:47.922Z,537.00
2023-04-16T03:41:47.203Z,539.00
2023-04-16T03:42:47.230Z,541.00
2023-04-16T03:43:47.224Z,541.00
2023-04-16T03:44:47.233Z,538.00
2023-04-16T03:45:47.213Z,539.00
2023-04-16T03:46:47.343Z,540.00
2023-04-16T03:47:47.292Z,540.00
2023-04-16T03:48:47.245Z,539.00
2023-04-16T03:49:47.253Z,537.00
2023-04-16T03:50:47.252Z,536.00
2023-04-16T03:51:47.255Z,535.00
2023-04-16T03:52:47.272Z,535.00
2023-04-16T03:53:47.239Z,535.00
2023-04-16T03:54:47.269Z,535.00
2023-04-16T03:55:47.286Z,535.00
2023-04-16T03:56:47.269Z,535.00
2023-04-16T03:57:47.318Z,536.00
2023-04-16T03:58:47.306Z,536.00
2023-04-16T03:59:47.340Z,537.00
2023-04-16T04:00:47.350Z,536.00
2023-04-16T04:01:47.381Z,537.00
2023-04-16T04:02:47.581Z,536.00
2023-04-16T04:03:47.475Z,537.00
2023-04-16T04:04:47.632Z,537.00
2023-04-16T04:05:47.378Z,535.00
2023-04-16T04:06:47.414Z,534.00
2023-04-16T04:07:47.408Z,533.00
2023-04-16T04:08:47.455Z,532.00
2023-04-16T04:09:47.450Z,531.00
2023-04-16T04:10:47.480Z,532.00
2023-04-16T04:11:47.476Z,532.00
2023-04-16T04:12:47.498Z,530.00
2023-04-16T04:13:47.550Z,533.00
2023-04-16T04:14:47.515Z,534.00
2023-04-16T04:15:47.588Z,533.00
2023-04-16T04:16:47.673Z,536.00
2023-04-16T04:17:47.628Z,535.00
2023-04-16T04:18:47.597Z,535.00
2023-04-16T04:20:00.422Z,536.00
2023-04-16T04:20:48.582Z,536.00
2023-04-16T04:21:47.546Z,536.00
2023-04-16T04:22:47.584Z,537.00
2023-04-16T04:23:47.564Z,538.00
2023-04-16T04:24:47.548Z,537.00
2023-04-16T04:25:47.647Z,538.00
2023-04-16T04:26:47.512Z,540.00
2023-04-16T04:27:47.520Z,541.00
2023-04-16T04:28:47.513Z,539.00
2023-04-16T04:29:47.524Z,536.00
2023-04-16T04:30:47.513Z,534.00
2023-04-16T04:31:47.539Z,532.00
2023-04-16T04:32:47.542Z,532.00
2023-04-16T04:33:47.492Z,534.00
2023-04-16T04:34:47.501Z,535.00
2023-04-16T04:35:47.491Z,534.00
2023-04-16T04:36:47.468Z,535.00
2023-04-16T04:37:47.436Z,535.00
2023-04-16T04:38:47.434Z,535.00
2023-04-16T04:39:47.460Z,535.00
2023-04-16T04:40:47.448Z,537.00
2023-04-16T04:41:47.557Z,540.00
2023-04-16T04:42:48.393Z,539.00
2023-04-16T04:43:47.417Z,542.00
2023-04-16T04:44:47.408Z,542.00
2023-04-16T04:45:47.460Z,542.00
2023-04-16T04:46:47.390Z,543.00
2023-04-16T04:47:47.406Z,542.00
2023-04-16T04:48:47.347Z,544.00
2023-04-16T04:49:47.381Z,542.00
2023-04-16T04:50:47.322Z,543.00
2023-04-16T04:51:47.339Z,543.00
2023-04-16T04:52:47.349Z,544.00
2023-04-16T04:53:47.351Z,543.00
2023-04-16T04:54:47.328Z,543.00
2023-04-16T04:55:49.285Z,542.00
2023-04-16T04:56:47.318Z,540.00
2023-04-16T04:57:47.285Z,538.00
2023-04-16T04:58:47.328Z,537.00
2023-04-16T04:59:47.293Z,535.00
2023-04-16T05:00:47.301Z,532.00
2023-04-16T05:01:47.274Z,531.00
2023-04-16T05:02:47.354Z,532.00
2023-04-16T05:03:47.420Z,532.00
2023-04-16T05:04:47.299Z,534.00
2023-04-16T05:05:47.237Z,533.00
2023-04-16T05:06:47.256Z,534.00
2023-04-16T05:07:47.211Z,533.00
2023-04-16T05:08:47.224Z,532.00
2023-04-16T05:09:47.220Z,534.00
2023-04-16T05:10:47.193Z,537.00
2023-04-16T05:11:47.214Z,536.00
2023-04-16T05:12:48.234Z,535.00
2023-04-16T05:13:47.215Z,535.00
2023-04-16T05:14:47.182Z,535.00
2023-04-16T05:15:47.196Z,537.00
2023-04-16T05:16:47.225Z,537.00
2023-04-16T05:17:47.157Z,538.00
2023-04-16T05:18:47.149Z,537.00
2023-04-16T05:19:47.100Z,538.00
2023-04-16T05:20:47.137Z,539.00
2023-04-16T05:21:47.160Z,538.00
2023-04-16T05:22:47.160Z,539.00
2023-04-16T05:23:47.260Z,538.00
2023-04-16T05:24:47.196Z,537.00
2023-04-16T05:25:47.223Z,538.00
2023-04-16T05:26:47.213Z,539.00
2023-04-16T05:27:47.244Z,539.00
2023-04-16T05:28:47.267Z,536.00
2023-04-16T05:29:47.288Z,535.00
2023-04-16T05:30:47.277Z,536.00
2023-04-16T05:31:47.290Z,537.00
2023-04-16T05:32:47.326Z,536.00
2023-04-16T05:33:47.316Z,536.00
2023-04-16T05:34:47.294Z,535.00
2023-04-16T05:35:47.315Z,534.00
2023-04-16T05:36:47.347Z,533.00
2023-04-16T05:37:47.348Z,534.00
2023-04-16T05:38:47.396Z,534.00
2023-04-16T05:39:47.360Z,535.00
2023-04-16T05:40:47.412Z,534.00
2023-04-16T05:41:47.404Z,531.00
2023-04-16T05:42:48.019Z,534.00
2023-04-16T05:43:47.436Z,537.00
2023-04-16T05:44:47.443Z,539.00
2023-04-16T05:45:47.509Z,540.00
2023-04-16T05:46:47.481Z,541.00
2023-04-16T05:47:47.535Z,541.00
2023-04-16T05:48:47.493Z,539.00
2023-04-16T05:49:47.517Z,540.00
2023-04-16T05:50:47.534Z,540.00
2023-04-16T05:51:47.843Z,537.00
2023-04-16T05:52:47.528Z,536.00
2023-04-16T05:53:47.573Z,535.00
2023-04-16T05:54:47.585Z,534.00
2023-04-16T05:55:47.595Z,535.00
2023-04-16T05:56:47.612Z,535.00
2023-04-16T05:57:47.614Z,535.00
2023-04-16T05:58:47.647Z,535.00
2023-04-16T05:59:47.681Z,535.00
2023-04-16T06:00:47.678Z,534.00
2023-04-16T06:01:47.730Z,535.00
2023-04-16T06:02:47.809Z,535.00
2023-04-16T06:03:47.774Z,533.00
2023-04-16T06:04:47.711Z,533.00
2023-04-16T06:05:47.782Z,534.00
2023-04-16T06:06:47.734Z,536.00
2023-04-16T06:07:47.750Z,535.00
2023-04-16T06:08:47.761Z,535.00
2023-04-16T06:09:47.784Z,536.00
2023-04-16T06:10:47.783Z,533.00
2023-04-16T06:11:47.803Z,531.00
2023-04-16T06:12:47.820Z,532.00
2023-04-16T06:13:47.814Z,533.00
2023-04-16T06:14:47.854Z,533.00
2023-04-16T06:15:47.891Z,531.00
2023-04-16T06:16:47.869Z,531.00
2023-04-16T06:17:47.864Z,534.00
2023-04-16T06:18:47.839Z,535.00
2023-04-16T06:19:47.885Z,536.00
2023-04-16T06:20:47.855Z,535.00
2023-04-16T06:21:47.888Z,534.00
2023-04-16T06:22:47.881Z,536.00
2023-04-16T06:23:47.909Z,535.00
2023-04-16T06:24:47.960Z,533.00
2023-04-16T06:25:47.920Z,532.00
2023-04-16T06:26:47.953Z,533.00
2023-04-16T06:27:47.976Z,533.00
2023-04-16T06:28:47.973Z,533.00
2023-04-16T06:29:47.949Z,534.00
2023-04-16T06:30:47.962Z,531.00
2023-04-16T06:31:48.122Z,530.00
2023-04-16T06:32:48.161Z,529.00
2023-04-16T06:33:48.044Z,528.00
2023-04-16T06:34:48.043Z,528.00
2023-04-16T06:35:48.041Z,528.00
2023-04-16T06:36:48.067Z,529.00
2023-04-16T06:37:48.054Z,529.00
2023-04-16T06:38:48.073Z,527.00
2023-04-16T06:39:48.088Z,525.00
2023-04-16T06:40:48.102Z,525.00
2023-04-16T06:41:48.087Z,525.00
2023-04-16T06:42:48.110Z,524.00
2023-04-16T06:43:48.094Z,522.00
2023-04-16T06:44:48.136Z,521.00
2023-04-16T06:45:48.120Z,519.00
2023-04-16T06:46:48.173Z,518.00
2023-04-16T06:47:48.199Z,519.00
2023-04-16T06:48:48.148Z,519.00
2023-04-16T06:49:48.132Z,520.00
2023-04-16T06:50:48.173Z,524.00
2023-04-16T06:51:48.131Z,526.00
2023-04-16T06:52:48.199Z,527.00
2023-04-16T06:53:48.195Z,528.00
2023-04-16T06:54:48.158Z,527.00
2023-04-16T06:55:48.166Z,529.00
2023-04-16T06:56:48.154Z,527.00
2023-04-16T06:57:48.184Z,527.00
2023-04-16T06:58:48.201Z,524.00
2023-04-16T06:59:48.207Z,522.00
2023-04-16T07:00:48.233Z,521.00
2023-04-16T07:01:48.255Z,521.00
2023-04-16T07:02:48.345Z,520.00
2023-04-16T07:03:48.508Z,521.00
2023-04-16T07:04:48.204Z,520.00
2023-04-16T07:05:48.227Z,519.00
2023-04-16T07:06:48.192Z,520.00
2023-04-16T07:07:48.186Z,522.00
2023-04-16T07:08:48.194Z,521.00
2023-04-16T07:09:48.207Z,522.00
2023-04-16T07:10:48.193Z,523.00
2023-04-16T07:11:48.231Z,522.00
2023-04-16T07:12:48.209Z,523.00
2023-04-16T07:13:48.245Z,522.00
2023-04-16T07:14:48.230Z,524.00
2023-04-16T07:15:48.222Z,525.00
2023-04-16T07:16:48.284Z,525.00
2023-04-16T07:17:48.275Z,522.00
2023-04-16T07:18:48.216Z,524.00
2023-04-16T07:19:48.245Z,524.00
2023-04-16T07:20:48.248Z,525.00
2023-04-16T07:21:48.226Z,523.00
2023-04-16T07:22:48.237Z,523.00
2023-04-16T07:23:48.251Z,520.00
2023-04-16T07:24:48.266Z,514.00
2023-04-16T07:25:48.269Z,515.00
2023-04-16T07:26:48.259Z,516.00
2023-04-16T07:27:48.255Z,515.00
2023-04-16T07:28:48.273Z,520.00
2023-04-16T07:29:48.235Z,520.00
2023-04-16T07:30:48.309Z,520.00
2023-04-16T07:31:48.290Z,518.00
2023-04-16T07:32:48.276Z,517.00
2023-04-16T07:33:48.274Z,519.00
2023-04-16T07:34:48.269Z,519.00
2023-04-16T07:35:48.288Z,520.00
2023-04-16T07:36:48.268Z,521.00
2023-04-16T07:37:48.300Z,522.00
2023-04-16T07:38:48.304Z,524.00
2023-04-16T07:39:48.255Z,524.00
2023-04-16T07:40:48.295Z,527.00
2023-04-16T07:41:48.316Z,527.00
2023-04-16T07:42:48.264Z,529.00
2023-04-16T07:43:48.261Z,530.00
2023-04-16T07:44:48.257Z,532.00
2023-04-16T07:45:48.293Z,532.00
2023-04-16T07:46:48.315Z,535.00
2023-04-16T07:47:48.307Z,534.00
2023-04-16T07:48:48.228Z,532.00
2023-04-16T07:49:48.231Z,533.00
2023-04-16T07:50:48.252Z,533.00
2023-04-16T07:51:48.252Z,531.00
2023-04-16T07:52:48.255Z,528.00
2023-04-16T07:53:48.262Z,526.00
2023-04-16T07:54:48.242Z,527.00
2023-04-16T07:55:48.268Z,528.00
2023-04-16T07:56:48.253Z,527.00
2023-04-16T07:57:48.236Z,527.00
2023-04-16T07:58:48.269Z,528.00
2023-04-16T07:59:48.276Z,527.00
2023-04-16T08:00:49.298Z,525.00
2023-04-16T08:01:48.476Z,525.00
2023-04-16T08:02:48.461Z,526.00
2023-04-16T08:03:48.541Z,527.00
2023-04-16T08:04:48.442Z,528.00
2023-04-16T08:05:48.321Z,527.00
2023-04-16T08:06:48.332Z,523.00
2023-04-16T08:07:48.296Z,523.00
2023-04-16T08:08:48.327Z,525.00
2023-04-16T08:09:48.310Z,525.00
2023-04-16T08:10:48.295Z,527.00
2023-04-16T08:11:48.325Z,530.00
2023-04-16T08:12:48.312Z,532.00
2023-04-16T08:13:48.347Z,532.00
2023-04-16T08:14:48.333Z,532.00
2023-04-16T08:15:48.358Z,530.00
2023-04-16T08:16:48.385Z,531.00
2023-04-16T08:17:48.382Z,532.00
2023-04-16T08:18:48.379Z,533.00
2023-04-16T08:19:48.386Z,535.00
2023-04-16T08:20:48.391Z,534.00
2023-04-16T08:21:48.433Z,535.00
2023-04-16T08:22:48.474Z,534.00
2023-04-16T08:23:48.457Z,534.00
2023-04-16T08:24:48.500Z,534.00
2023-04-16T08:25:48.521Z,536.00
2023-04-16T08:26:48.536Z,534.00
2023-04-16T08:27:48.597Z,535.00
2023-04-16T08:28:48.637Z,534.00
2023-04-16T08:29:48.664Z,534.00
2023-04-16T08:30:48.727Z,534.00
2023-04-16T08:31:48.833Z,534.00
2023-04-16T08:32:50.054Z,533.00
2023-04-16T08:33:48.814Z,532.00
2023-04-16T08:34:48.851Z,532.00
2023-04-16T08:35:48.923Z,532.00
2023-04-16T08:36:48.941Z,532.00
2023-04-16T08:37:49.009Z,532.00
2023-04-16T08:38:49.056Z,532.00
2023-04-16T08:39:49.111Z,534.00
2023-04-16T08:40:49.170Z,532.00
2023-04-16T08:41:49.201Z,533.00
2023-04-16T08:42:49.234Z,534.00
2023-04-16T08:43:49.338Z,530.00
2023-04-16T08:44:49.562Z,531.00
2023-04-16T08:45:49.429Z,531.00
2023-04-16T08:46:49.514Z,533.00
2023-04-16T08:47:49.653Z,531.00
2023-04-16T08:48:49.576Z,531.00
2023-04-16T08:49:49.609Z,530.00
2023-04-16T08:50:49.646Z,530.00
2023-04-16T08:51:49.740Z,531.00
2023-04-16T08:52:49.796Z,531.00
2023-04-16T08:53:49.825Z,531.00
2023-04-16T08:54:56.939Z,532.00
2023-04-16T08:55:50.874Z,531.00
2023-04-16T08:56:49.886Z,529.00
2023-04-16T08:57:49.878Z,528.00
2023-04-16T08:58:49.857Z,527.00
2023-04-16T08:59:49.836Z,526.00
2023-04-16T09:00:49.835Z,526.00
2023-04-16T09:01:49.892Z,524.00
2023-04-16T09:02:50.241Z,522.00
2023-04-16T09:03:50.091Z,521.00
2023-04-16T09:04:50.032Z,520.00
2023-04-16T09:05:50.023Z,519.00
2023-04-16T09:06:50.067Z,520.00
2023-04-16T09:07:50.116Z,522.00
2023-04-16T09:08:50.210Z,523.00
2023-04-16T09:09:50.240Z,526.00
2023-04-16T09:10:50.308Z,527.00
2023-04-16T09:11:50.383Z,529.00
2023-04-16T09:12:50.458Z,533.00
2023-04-16T09:13:50.511Z,534.00
2023-04-16T09:14:50.575Z,532.00
2023-04-16T09:15:50.668Z,533.00
2023-04-16T09:16:50.691Z,533.00
2023-04-16T09:17:50.790Z,534.00
2023-04-16T09:18:50.800Z,533.00
2023-04-16T09:19:50.880Z,533.00
2023-04-16T09:20:50.964Z,532.00
2023-04-16T09:21:50.962Z,533.00
2023-04-16T09:22:51.069Z,533.00
2023-04-16T09:23:51.092Z,532.00
2023-04-16T09:24:51.173Z,531.00
2023-04-16T09:25:51.249Z,530.00
2023-04-16T09:26:51.272Z,531.00
2023-04-16T09:27:51.352Z,531.00
2023-04-16T09:28:51.454Z,531.00
2023-04-16T09:29:51.467Z,532.00
2023-04-16T09:30:51.539Z,533.00
2023-04-16T09:31:51.629Z,531.00
2023-04-16T09:32:51.713Z,532.00
2023-04-16T09:33:51.704Z,530.00
2023-04-16T09:34:51.766Z,529.00
2023-04-16T09:35:51.797Z,527.00
2023-04-16T09:36:51.891Z,526.00
2023-04-16T09:37:51.924Z,530.00
2023-04-16T09:38:51.994Z,531.00
2023-04-16T09:39:52.037Z,530.00
2023-04-16T09:40:52.121Z,530.00
2023-04-16T09:41:52.152Z,528.00
2023-04-16T09:42:52.209Z,529.00
2023-04-16T09:43:52.304Z,529.00
2023-04-16T09:44:52.322Z,529.00
2023-04-16T09:45:52.479Z,528.00
2023-04-16T09:46:52.531Z,530.00
2023-04-16T09:47:52.576Z,532.00
2023-04-16T09:48:52.595Z,534.00
2023-04-16T09:49:52.645Z,535.00
2023-04-16T09:50:52.705Z,533.00
2023-04-16T09:51:53.697Z,531.00
2023-04-16T09:52:52.856Z,530.00
2023-04-16T09:53:52.923Z,530.00
2023-04-16T09:54:52.951Z,530.00
2023-04-16T09:55:53.012Z,529.00
2023-04-16T09:56:53.092Z,528.00
2023-04-16T09:57:53.108Z,527.00
2023-04-16T09:58:53.197Z,529.00
2023-04-16T09:59:53.257Z,529.00
2023-04-16T10:00:53.357Z,528.00
2023-04-16T10:01:57.254Z,528.00
2023-04-16T10:02:54.447Z,527.00
2023-04-16T10:03:53.483Z,525.00
2023-04-16T10:04:53.471Z,526.00
2023-04-16T10:05:53.370Z,526.00
2023-04-16T10:06:53.313Z,527.00
2023-04-16T10:07:53.359Z,530.00
2023-04-16T10:08:53.362Z,531.00
2023-04-16T10:09:53.339Z,531.00
2023-04-16T10:10:53.340Z,530.00
2023-04-16T10:11:53.395Z,531.00
2023-04-16T10:12:53.462Z,530.00
2023-04-16T10:13:53.509Z,531.00
2023-04-16T10:14:53.570Z,529.00
2023-04-16T10:15:53.624Z,528.00
2023-04-16T10:16:53.666Z,527.00
2023-04-16T10:17:53.895Z,524.00
2023-04-16T10:18:53.792Z,524.00
2023-04-16T10:19:53.840Z,526.00
2023-04-16T10:20:53.920Z,526.00
2023-04-16T10:21:53.945Z,526.00
2023-04-16T10:22:54.028Z,523.00
2023-04-16T10:23:54.078Z,521.00
2023-04-16T10:24:54.125Z,522.00
2023-04-16T10:25:55.152Z,522.00
2023-04-16T10:26:54.233Z,522.00
2023-04-16T10:27:54.179Z,522.00
2023-04-16T10:28:54.182Z,522.00
2023-04-16T10:29:54.140Z,520.00
2023-04-16T10:30:54.183Z,521.00
2023-04-16T10:31:54.142Z,523.00
2023-04-16T10:32:54.174Z,526.00
2023-04-16T10:33:54.164Z,526.00
2023-04-16T10:34:54.129Z,525.00
2023-04-16T10:36:01.291Z,527.00
2023-04-16T10:36:55.083Z,525.00
2023-04-16T10:37:54.089Z,522.00
2023-04-16T10:38:54.101Z,521.00
2023-04-16T10:39:54.073Z,521.00
2023-04-16T10:40:54.096Z,520.00
2023-04-16T10:41:54.093Z,519.00
2023-04-16T10:42:54.596Z,519.00
2023-04-16T10:43:54.085Z,519.00
2023-04-16T10:44:54.094Z,521.00
2023-04-16T10:45:54.113Z,522.00
2023-04-16T10:46:54.151Z,523.00
2023-04-16T10:47:54.282Z,523.00
2023-04-16T10:48:54.336Z,522.00
2023-04-16T10:49:54.344Z,522.00
2023-04-16T10:50:54.405Z,520.00
2023-04-16T10:51:54.452Z,519.00
2023-04-16T10:52:54.476Z,519.00
2023-04-16T10:53:54.547Z,521.00
2023-04-16T10:54:54.588Z,522.00
2023-04-16T10:55:54.633Z,522.00
2023-04-16T10:56:54.681Z,523.00
2023-04-16T10:57:54.764Z,523.00
2023-04-16T10:58:54.799Z,521.00
2023-04-16T10:59:54.834Z,521.00
2023-04-16T11:00:54.868Z,519.00
2023-04-16T11:01:55.038Z,519.00
2023-04-16T11:02:55.081Z,517.00
2023-04-16T11:03:55.172Z,516.00
2023-04-16T11:04:55.191Z,518.00
2023-04-16T11:05:55.125Z,520.00
2023-04-16T11:06:55.148Z,521.00
2023-04-16T11:07:55.222Z,520.00
2023-04-16T11:08:55.597Z,519.00
2023-04-16T11:09:55.334Z,521.00
2023-04-16T11:10:55.393Z,523.00
2023-04-16T11:11:55.432Z,523.00
2023-04-16T11:12:55.494Z,524.00
2023-04-16T11:13:55.538Z,521.00
2023-04-16T11:14:55.572Z,521.00
2023-04-16T11:15:55.692Z,523.00
2023-04-16T11:16:55.710Z,524.00
2023-04-16T11:17:55.827Z,525.00
2023-04-16T11:18:56.891Z,527.00
2023-04-16T11:19:55.886Z,526.00
2023-04-16T11:20:55.935Z,527.00
2023-04-16T11:21:56.009Z,529.00
2023-04-16T11:22:56.046Z,528.00
2023-04-16T11:23:56.104Z,525.00
2023-04-16T11:24:56.239Z,526.00
2023-04-16T11:25:56.228Z,521.00
2023-04-16T11:26:56.317Z,521.00
2023-04-16T11:27:56.369Z,521.00
2023-04-16T11:28:56.407Z,521.00
2023-04-16T11:29:56.458Z,523.00
2023-04-16T11:30:56.564Z,522.00
2023-04-16T11:31:56.574Z,522.00
2023-04-16T11:32:56.780Z,520.00
2023-04-16T11:33:56.739Z,517.00
2023-04-16T11:34:56.727Z,516.00
2023-04-16T11:35:56.822Z,515.00
2023-04-16T11:36:56.870Z,514.00
2023-04-16T11:37:56.892Z,514.00
2023-04-16T11:38:56.983Z,515.00
2023-04-16T11:39:57.013Z,516.00
2023-04-16T11:40:57.092Z,517.00
2023-04-16T11:41:57.150Z,521.00
2023-04-16T11:42:58.663Z,523.00
2023-04-16T11:43:57.331Z,523.00
2023-04-16T11:44:57.354Z,525.00
2023-04-16T11:45:57.432Z,526.00
2023-04-16T11:46:57.462Z,525.00
2023-04-16T11:47:57.536Z,527.00
2023-04-16T11:48:57.587Z,529.00
2023-04-16T11:49:57.592Z,528.00
2023-04-16T11:50:57.670Z,528.00
2023-04-16T11:51:57.751Z,529.00
2023-04-16T11:52:57.751Z,529.00
2023-04-16T11:53:57.817Z,527.00
2023-04-16T11:54:57.861Z,526.00
2023-04-16T11:55:57.913Z,527.00
2023-04-16T11:56:57.930Z,529.00
2023-04-16T11:57:57.989Z,528.00
2023-04-16T11:58:58.923Z,528.00
2023-04-16T12:00:02.584Z,526.00
2023-04-16T12:00:59.116Z,524.00
2023-04-16T12:01:58.232Z,523.00
2023-04-16T12:02:58.200Z,521.00
2023-04-16T12:03:58.272Z,524.00
2023-04-16T12:04:58.174Z,525.00
2023-04-16T12:05:58.051Z,525.00
2023-04-16T12:06:58.062Z,525.00
2023-04-16T12:07:58.029Z,523.00
2023-04-16T12:08:58.130Z,521.00
2023-04-16T12:09:58.036Z,519.00
2023-04-16T12:10:58.084Z,520.00
2023-04-16T12:11:58.160Z,522.00
2023-04-16T12:12:58.164Z,526.00
2023-04-16T12:13:58.243Z,526.00
2023-04-16T12:14:58.290Z,526.00
2023-04-16T12:15:58.339Z,526.00
2023-04-16T12:16:58.452Z,526.00
2023-04-16T12:17:58.451Z,527.00
2023-04-16T12:18:58.465Z,527.00
2023-04-16T12:19:58.550Z,528.00
2023-04-16T12:20:58.564Z,524.00
2023-04-16T12:21:58.584Z,525.00
2023-04-16T12:22:58.653Z,523.00
2023-04-16T12:23:58.725Z,520.00
2023-04-16T12:24:58.772Z,520.00
2023-04-16T12:25:58.814Z,519.00
2023-04-16T12:26:58.842Z,519.00
2023-04-16T12:27:58.942Z,518.00
2023-04-16T12:28:58.991Z,519.00